sensor_id;sensor_type;location;lat;lon;timestamp;P1;durP1;ratioP1;P2;durP2;ratioP2
65009;SDS011;51556;50.002;22.014;2023-07-13T00:00:17;8.70;;;5.90;;
65009;SDS011;51556;50.002;22.014;2023-07-13T00:02:43;9.90;;;6.40;;
65009;SDS011;51556;50.002;22.014;2023-07-13T00:05:09;13.20;;;6.40;;
65009;SDS011;51556;50.002;22.014;2023-07-13T00:07:35;11.00;;;6.50;;
65009;SDS011;51556;50.002;22.014;2023-07-13T00:10:02;16.20;;;7.30;;
65009;SDS011;51556;50.002;22.014;2023-07-13T00:12:32;9.40;;;6.50;;
65009;SDS011;51556;50.002;22.014;2023-07-13T00:15:01;9.70;;;7.00;;
65009;SDS011;51556;50.002;22.014;2023-07-13T00:17:30;11.50;;;7.00;;
65009;SDS011;51556;50.002;22.014;2023-07-13T00:19:56;9.60;;;6.10;;
65009;SDS011;51556;50.002;22.014;2023-07-13T00:22:23;11.10;;;6.50;;
65009;SDS011;51556;50.002;22.014;2023-07-13T00:24:54;8.30;;;6.20;;
65009;SDS011;51556;50.002;22.014;2023-07-13T00:27:22;9.10;;;6.30;;
65009;SDS011;51556;50.002;22.014;2023-07-13T00:29:51;8.50;;;5.90;;
65009;SDS011;51556;50.002;22.014;2023-07-13T00:32:18;12.90;;;6.60;;
65009;SDS011;51556;50.002;22.014;2023-07-13T00:34:46;8.50;;;6.10;;
65009;SDS011;51556;50.002;22.014;2023-07-13T00:37:12;9.00;;;6.00;;
65009;SDS011;51556;50.002;22.014;2023-07-13T00:39:37;10.00;;;6.30;;
65009;SDS011;51556;50.002;22.014;2023-07-13T00:42:04;8.40;;;6.10;;
65009;SDS011;51556;50.002;22.014;2023-07-13T00:44:30;8.20;;;6.40;;
65009;SDS011;51556;50.002;22.014;2023-07-13T00:46:56;10.10;;;6.10;;
65009;SDS011;51556;50.002;22.014;2023-07-13T00:49:24;8.70;;;6.10;;
65009;SDS011;51556;50.002;22.014;2023-07-13T00:51:55;10.30;;;6.20;;
65009;SDS011;51556;50.002;22.014;2023-07-13T00:54:32;12.30;;;5.70;;
65009;SDS011;51556;50.002;22.014;2023-07-13T00:57:03;8.80;;;6.20;;
65009;SDS011;51556;50.002;22.014;2023-07-13T00:59:31;8.30;;;6.20;;
65009;SDS011;51556;50.002;22.014;2023-07-13T01:01:59;10.80;;;6.40;;
65009;SDS011;51556;50.002;22.014;2023-07-13T01:04:25;10.00;;;6.40;;
65009;SDS011;51556;50.002;22.014;2023-07-13T01:06:54;9.60;;;6.50;;
65009;SDS011;51556;50.002;22.014;2023-07-13T01:09:21;10.00;;;6.40;;
65009;SDS011;51556;50.002;22.014;2023-07-13T01:11:47;9.10;;;5.80;;
65009;SDS011;51556;50.002;22.014;2023-07-13T01:14:14;9.10;;;6.50;;
65009;SDS011;51556;50.002;22.014;2023-07-13T01:16:40;9.90;;;6.70;;
65009;SDS011;51556;50.002;22.014;2023-07-13T01:22:18;11.00;;;6.90;;
65009;SDS011;51556;50.002;22.014;2023-07-13T01:24:50;8.90;;;6.50;;
65009;SDS011;51556;50.002;22.014;2023-07-13T01:27:20;9.00;;;6.60;;
65009;SDS011;51556;50.002;22.014;2023-07-13T01:29:50;9.80;;;6.60;;
65009;SDS011;51556;50.002;22.014;2023-07-13T01:32:21;8.10;;;6.00;;
65009;SDS011;51556;50.002;22.014;2023-07-13T01:34:52;12.80;;;7.00;;
65009;SDS011;51556;50.002;22.014;2023-07-13T01:37:25;9.40;;;5.90;;
65009;SDS011;51556;50.002;22.014;2023-07-13T01:39:52;8.80;;;6.10;;
65009;SDS011;51556;50.002;22.014;2023-07-13T01:42:18;11.30;;;6.80;;
65009;SDS011;51556;50.002;22.014;2023-07-13T01:44:53;8.70;;;5.80;;
65009;SDS011;51556;50.002;22.014;2023-07-13T01:47:18;7.70;;;5.80;;
65009;SDS011;51556;50.002;22.014;2023-07-13T01:49:44;14.20;;;6.80;;
65009;SDS011;51556;50.002;22.014;2023-07-13T01:52:25;9.40;;;6.80;;
65009;SDS011;51556;50.002;22.014;2023-07-13T01:54:54;10.30;;;6.40;;
65009;SDS011;51556;50.002;22.014;2023-07-13T01:57:19;8.50;;;6.30;;
65009;SDS011;51556;50.002;22.014;2023-07-13T01:59:45;10.80;;;5.70;;
65009;SDS011;51556;50.002;22.014;2023-07-13T02:02:10;10.60;;;6.20;;
65009;SDS011;51556;50.002;22.014;2023-07-13T02:04:36;7.90;;;6.20;;
65009;SDS011;51556;50.002;22.014;2023-07-13T02:07:02;7.30;;;5.90;;
65009;SDS011;51556;50.002;22.014;2023-07-13T02:09:28;9.80;;;6.40;;
65009;SDS011;51556;50.002;22.014;2023-07-13T02:11:53;9.50;;;6.20;;
65009;SDS011;51556;50.002;22.014;2023-07-13T02:14:19;9.90;;;6.00;;
65009;SDS011;51556;50.002;22.014;2023-07-13T02:16:44;10.70;;;6.70;;
65009;SDS011;51556;50.002;22.014;2023-07-13T02:19:10;9.20;;;6.60;;
65009;SDS011;51556;50.002;22.014;2023-07-13T02:21:35;9.90;;;6.60;;
65009;SDS011;51556;50.002;22.014;2023-07-13T02:24:01;8.90;;;5.70;;
65009;SDS011;51556;50.002;22.014;2023-07-13T02:26:26;12.80;;;6.70;;
65009;SDS011;51556;50.002;22.014;2023-07-13T02:28:53;9.70;;;6.30;;
65009;SDS011;51556;50.002;22.014;2023-07-13T02:31:18;10.40;;;6.70;;
65009;SDS011;51556;50.002;22.014;2023-07-13T02:33:44;10.90;;;6.10;;
65009;SDS011;51556;50.002;22.014;2023-07-13T02:36:10;11.00;;;6.60;;
65009;SDS011;51556;50.002;22.014;2023-07-13T02:38:36;8.40;;;6.70;;
65009;SDS011;51556;50.002;22.014;2023-07-13T02:41:06;10.50;;;6.20;;
65009;SDS011;51556;50.002;22.014;2023-07-13T02:43:34;11.80;;;6.50;;
65009;SDS011;51556;50.002;22.014;2023-07-13T02:46:00;10.80;;;5.80;;
65009;SDS011;51556;50.002;22.014;2023-07-13T02:48:32;9.60;;;5.80;;
65009;SDS011;51556;50.002;22.014;2023-07-13T02:50:58;11.00;;;6.70;;
65009;SDS011;51556;50.002;22.014;2023-07-13T02:53:23;9.80;;;6.50;;
65009;SDS011;51556;50.002;22.014;2023-07-13T02:55:49;10.50;;;6.50;;
65009;SDS011;51556;50.002;22.014;2023-07-13T02:58:14;7.60;;;5.70;;
65009;SDS011;51556;50.002;22.014;2023-07-13T03:00:42;9.50;;;6.60;;
65009;SDS011;51556;50.002;22.014;2023-07-13T03:03:08;10.00;;;6.20;;
65009;SDS011;51556;50.002;22.014;2023-07-13T03:05:33;10.00;;;6.00;;
65009;SDS011;51556;50.002;22.014;2023-07-13T03:07:59;10.80;;;6.20;;
65009;SDS011;51556;50.002;22.014;2023-07-13T03:10:24;8.60;;;6.40;;
65009;SDS011;51556;50.002;22.014;2023-07-13T03:12:50;8.80;;;5.90;;
65009;SDS011;51556;50.002;22.014;2023-07-13T03:15:15;9.60;;;6.30;;
65009;SDS011;51556;50.002;22.014;2023-07-13T03:17:41;9.20;;;6.50;;
65009;SDS011;51556;50.002;22.014;2023-07-13T03:20:07;11.40;;;6.20;;
65009;SDS011;51556;50.002;22.014;2023-07-13T03:22:33;11.70;;;6.80;;
65009;SDS011;51556;50.002;22.014;2023-07-13T03:24:58;10.20;;;6.10;;
65009;SDS011;51556;50.002;22.014;2023-07-13T03:27:24;10.00;;;6.10;;
65009;SDS011;51556;50.002;22.014;2023-07-13T03:29:49;12.90;;;6.20;;
65009;SDS011;51556;50.002;22.014;2023-07-13T03:32:15;8.50;;;6.50;;
65009;SDS011;51556;50.002;22.014;2023-07-13T03:34:40;7.20;;;5.60;;
65009;SDS011;51556;50.002;22.014;2023-07-13T03:37:05;9.90;;;6.20;;
65009;SDS011;51556;50.002;22.014;2023-07-13T03:39:31;8.60;;;5.40;;
65009;SDS011;51556;50.002;22.014;2023-07-13T03:41:56;8.10;;;6.00;;
65009;SDS011;51556;50.002;22.014;2023-07-13T03:44:22;9.90;;;6.10;;
65009;SDS011;51556;50.002;22.014;2023-07-13T03:46:47;7.40;;;6.10;;
65009;SDS011;51556;50.002;22.014;2023-07-13T03:49:13;8.20;;;6.10;;
65009;SDS011;51556;50.002;22.014;2023-07-13T03:51:38;8.20;;;6.20;;
65009;SDS011;51556;50.002;22.014;2023-07-13T03:54:04;10.00;;;6.10;;
65009;SDS011;51556;50.002;22.014;2023-07-13T03:56:30;9.00;;;6.70;;
65009;SDS011;51556;50.002;22.014;2023-07-13T03:58:57;12.70;;;6.30;;
65009;SDS011;51556;50.002;22.014;2023-07-13T04:01:23;7.00;;;6.20;;
65009;SDS011;51556;50.002;22.014;2023-07-13T04:03:52;10.30;;;6.60;;
65009;SDS011;51556;50.002;22.014;2023-07-13T04:06:19;9.10;;;6.50;;
65009;SDS011;51556;50.002;22.014;2023-07-13T04:08:51;8.40;;;6.10;;
65009;SDS011;51556;50.002;22.014;2023-07-13T04:11:19;8.70;;;6.60;;
65009;SDS011;51556;50.002;22.014;2023-07-13T04:13:46;11.10;;;7.00;;
65009;SDS011;51556;50.002;22.014;2023-07-13T04:16:13;9.30;;;6.60;;
65009;SDS011;51556;50.002;22.014;2023-07-13T04:18:40;10.90;;;6.70;;
65009;SDS011;51556;50.002;22.014;2023-07-13T04:21:06;10.50;;;6.40;;
65009;SDS011;51556;50.002;22.014;2023-07-13T04:23:32;9.10;;;6.20;;
65009;SDS011;51556;50.002;22.014;2023-07-13T04:25:58;9.80;;;6.60;;
65009;SDS011;51556;50.002;22.014;2023-07-13T04:28:23;12.30;;;6.50;;
65009;SDS011;51556;50.002;22.014;2023-07-13T04:30:51;9.10;;;6.70;;
65009;SDS011;51556;50.002;22.014;2023-07-13T04:33:17;8.60;;;6.10;;
65009;SDS011;51556;50.002;22.014;2023-07-13T04:35:46;7.70;;;6.10;;
65009;SDS011;51556;50.002;22.014;2023-07-13T04:38:14;11.20;;;6.30;;
65009;SDS011;51556;50.002;22.014;2023-07-13T04:40:42;10.10;;;6.40;;
65009;SDS011;51556;50.002;22.014;2023-07-13T04:43:10;9.40;;;6.10;;
65009;SDS011;51556;50.002;22.014;2023-07-13T04:45:36;10.90;;;6.80;;
65009;SDS011;51556;50.002;22.014;2023-07-13T04:48:02;8.20;;;6.50;;
65009;SDS011;51556;50.002;22.014;2023-07-13T04:50:27;11.80;;;6.30;;
65009;SDS011;51556;50.002;22.014;2023-07-13T04:52:53;8.10;;;6.10;;
65009;SDS011;51556;50.002;22.014;2023-07-13T04:55:19;10.60;;;6.40;;
65009;SDS011;51556;50.002;22.014;2023-07-13T04:57:47;9.80;;;6.50;;
65009;SDS011;51556;50.002;22.014;2023-07-13T05:00:18;7.50;;;6.30;;
65009;SDS011;51556;50.002;22.014;2023-07-13T05:02:46;10.40;;;6.10;;
65009;SDS011;51556;50.002;22.014;2023-07-13T05:05:12;10.90;;;7.10;;
65009;SDS011;51556;50.002;22.014;2023-07-13T05:07:38;12.10;;;7.20;;
65009;SDS011;51556;50.002;22.014;2023-07-13T05:10:03;8.60;;;6.00;;
65009;SDS011;51556;50.002;22.014;2023-07-13T05:12:30;15.70;;;6.30;;
65009;SDS011;51556;50.002;22.014;2023-07-13T05:14:55;9.20;;;6.50;;
65009;SDS011;51556;50.002;22.014;2023-07-13T05:17:26;7.40;;;5.90;;
65009;SDS011;51556;50.002;22.014;2023-07-13T05:19:52;6.60;;;5.70;;
65009;SDS011;51556;50.002;22.014;2023-07-13T05:22:19;8.00;;;6.20;;
65009;SDS011;51556;50.002;22.014;2023-07-13T05:24:45;6.20;;;5.10;;
65009;SDS011;51556;50.002;22.014;2023-07-13T05:27:11;8.60;;;5.70;;
65009;SDS011;51556;50.002;22.014;2023-07-13T05:29:36;10.60;;;6.80;;
65009;SDS011;51556;50.002;22.014;2023-07-13T05:32:04;7.20;;;5.40;;
65009;SDS011;51556;50.002;22.014;2023-07-13T05:34:30;8.00;;;5.90;;
65009;SDS011;51556;50.002;22.014;2023-07-13T05:36:56;7.90;;;5.80;;
65009;SDS011;51556;50.002;22.014;2023-07-13T05:39:21;8.90;;;6.00;;
65009;SDS011;51556;50.002;22.014;2023-07-13T05:41:52;8.40;;;6.30;;
65009;SDS011;51556;50.002;22.014;2023-07-13T05:44:39;9.00;;;6.20;;
65009;SDS011;51556;50.002;22.014;2023-07-13T05:47:07;9.60;;;6.00;;
65009;SDS011;51556;50.002;22.014;2023-07-13T05:49:33;12.20;;;6.30;;
65009;SDS011;51556;50.002;22.014;2023-07-13T05:52:01;9.20;;;6.10;;
65009;SDS011;51556;50.002;22.014;2023-07-13T05:54:26;11.40;;;6.50;;
65009;SDS011;51556;50.002;22.014;2023-07-13T05:56:55;8.50;;;6.10;;
65009;SDS011;51556;50.002;22.014;2023-07-13T05:59:26;9.60;;;6.10;;
65009;SDS011;51556;50.002;22.014;2023-07-13T06:01:51;11.40;;;6.50;;
65009;SDS011;51556;50.002;22.014;2023-07-13T06:04:17;9.00;;;6.20;;
65009;SDS011;51556;50.002;22.014;2023-07-13T06:06:44;8.40;;;5.80;;
65009;SDS011;51556;50.002;22.014;2023-07-13T06:09:09;8.90;;;5.90;;
65009;SDS011;51556;50.002;22.014;2023-07-13T06:11:37;9.60;;;6.20;;
65009;SDS011;51556;50.002;22.014;2023-07-13T06:14:03;8.70;;;6.70;;
65009;SDS011;51556;50.002;22.014;2023-07-13T06:16:34;9.70;;;6.50;;
65009;SDS011;51556;50.002;22.014;2023-07-13T06:19:00;9.20;;;7.10;;
65009;SDS011;51556;50.002;22.014;2023-07-13T06:21:26;8.20;;;5.70;;
65009;SDS011;51556;50.002;22.014;2023-07-13T06:23:51;8.00;;;5.80;;
65009;SDS011;51556;50.002;22.014;2023-07-13T06:26:18;8.70;;;6.70;;
65009;SDS011;51556;50.002;22.014;2023-07-13T06:28:45;9.00;;;6.00;;
65009;SDS011;51556;50.002;22.014;2023-07-13T06:31:12;8.60;;;5.80;;
65009;SDS011;51556;50.002;22.014;2023-07-13T06:33:38;11.30;;;6.50;;
65009;SDS011;51556;50.002;22.014;2023-07-13T06:36:05;9.50;;;6.60;;
65009;SDS011;51556;50.002;22.014;2023-07-13T06:38:32;7.90;;;6.10;;
65009;SDS011;51556;50.002;22.014;2023-07-13T06:40:58;7.00;;;6.20;;
65009;SDS011;51556;50.002;22.014;2023-07-13T06:43:24;9.10;;;6.30;;
65009;SDS011;51556;50.002;22.014;2023-07-13T06:45:51;7.20;;;5.50;;
65009;SDS011;51556;50.002;22.014;2023-07-13T06:48:19;7.50;;;6.00;;
65009;SDS011;51556;50.002;22.014;2023-07-13T06:50:49;6.40;;;5.70;;
65009;SDS011;51556;50.002;22.014;2023-07-13T06:53:17;7.60;;;5.70;;
65009;SDS011;51556;50.002;22.014;2023-07-13T06:55:43;8.10;;;6.30;;
65009;SDS011;51556;50.002;22.014;2023-07-13T06:58:10;6.80;;;6.10;;
65009;SDS011;51556;50.002;22.014;2023-07-13T07:00:35;7.60;;;5.60;;
65009;SDS011;51556;50.002;22.014;2023-07-13T07:03:01;10.10;;;6.40;;
65009;SDS011;51556;50.002;22.014;2023-07-13T07:05:26;9.60;;;6.50;;
65009;SDS011;51556;50.002;22.014;2023-07-13T07:07:53;11.70;;;6.40;;
65009;SDS011;51556;50.002;22.014;2023-07-13T07:10:20;7.70;;;6.10;;
65009;SDS011;51556;50.002;22.014;2023-07-13T07:12:46;9.60;;;6.30;;
65009;SDS011;51556;50.002;22.014;2023-07-13T07:15:19;8.50;;;6.30;;
65009;SDS011;51556;50.002;22.014;2023-07-13T07:17:44;8.00;;;6.20;;
65009;SDS011;51556;50.002;22.014;2023-07-13T07:20:10;8.30;;;6.00;;
65009;SDS011;51556;50.002;22.014;2023-07-13T07:22:39;7.30;;;6.00;;
65009;SDS011;51556;50.002;22.014;2023-07-13T07:25:04;8.40;;;6.40;;
65009;SDS011;51556;50.002;22.014;2023-07-13T07:27:30;9.50;;;6.40;;
65009;SDS011;51556;50.002;22.014;2023-07-13T07:29:56;8.50;;;5.80;;
65009;SDS011;51556;50.002;22.014;2023-07-13T07:32:24;8.70;;;5.80;;
65009;SDS011;51556;50.002;22.014;2023-07-13T07:34:50;7.70;;;6.10;;
65009;SDS011;51556;50.002;22.014;2023-07-13T07:37:15;9.00;;;6.30;;
65009;SDS011;51556;50.002;22.014;2023-07-13T07:39:44;7.40;;;5.90;;
65009;SDS011;51556;50.002;22.014;2023-07-13T07:42:13;6.80;;;5.40;;
65009;SDS011;51556;50.002;22.014;2023-07-13T07:44:42;10.40;;;6.00;;
65009;SDS011;51556;50.002;22.014;2023-07-13T07:47:07;12.60;;;6.50;;
65009;SDS011;51556;50.002;22.014;2023-07-13T07:49:43;8.50;;;6.00;;
65009;SDS011;51556;50.002;22.014;2023-07-13T07:52:08;8.30;;;6.10;;
65009;SDS011;51556;50.002;22.014;2023-07-13T07:54:34;8.60;;;6.10;;
65009;SDS011;51556;50.002;22.014;2023-07-13T07:56:59;7.40;;;6.30;;
65009;SDS011;51556;50.002;22.014;2023-07-13T07:59:25;7.40;;;6.40;;
65009;SDS011;51556;50.002;22.014;2023-07-13T08:01:51;11.40;;;6.30;;
65009;SDS011;51556;50.002;22.014;2023-07-13T08:04:19;8.10;;;6.10;;
65009;SDS011;51556;50.002;22.014;2023-07-13T08:06:44;8.40;;;6.20;;
65009;SDS011;51556;50.002;22.014;2023-07-13T08:09:10;8.40;;;5.80;;
65009;SDS011;51556;50.002;22.014;2023-07-13T08:11:35;8.20;;;6.30;;
65009;SDS011;51556;50.002;22.014;2023-07-13T08:14:01;7.80;;;6.20;;
65009;SDS011;51556;50.002;22.014;2023-07-13T08:16:27;8.20;;;5.80;;
65009;SDS011;51556;50.002;22.014;2023-07-13T08:18:52;10.60;;;6.00;;
65009;SDS011;51556;50.002;22.014;2023-07-13T08:21:18;8.70;;;5.90;;
65009;SDS011;51556;50.002;22.014;2023-07-13T08:23:45;8.20;;;5.20;;
65009;SDS011;51556;50.002;22.014;2023-07-13T08:26:11;6.40;;;5.30;;
65009;SDS011;51556;50.002;22.014;2023-07-13T08:28:36;8.20;;;6.40;;
65009;SDS011;51556;50.002;22.014;2023-07-13T08:31:02;8.10;;;5.40;;
65009;SDS011;51556;50.002;22.014;2023-07-13T08:33:30;7.70;;;5.70;;
65009;SDS011;51556;50.002;22.014;2023-07-13T08:35:56;6.10;;;5.10;;
65009;SDS011;51556;50.002;22.014;2023-07-13T08:38:22;6.50;;;5.20;;
65009;SDS011;51556;50.002;22.014;2023-07-13T08:40:50;6.50;;;5.10;;
65009;SDS011;51556;50.002;22.014;2023-07-13T08:43:20;8.60;;;5.10;;
65009;SDS011;51556;50.002;22.014;2023-07-13T08:48:55;5.70;;;4.80;;
65009;SDS011;51556;50.002;22.014;2023-07-13T08:51:38;5.50;;;4.90;;
65009;SDS011;51556;50.002;22.014;2023-07-13T08:54:11;8.60;;;4.70;;
65009;SDS011;51556;50.002;22.014;2023-07-13T08:56:45;18.90;;;6.30;;
65009;SDS011;51556;50.002;22.014;2023-07-13T08:59:16;9.50;;;5.60;;
65009;SDS011;51556;50.002;22.014;2023-07-13T09:01:55;5.10;;;4.60;;
65009;SDS011;51556;50.002;22.014;2023-07-13T09:04:25;6.70;;;4.50;;
65009;SDS011;51556;50.002;22.014;2023-07-13T09:06:58;8.30;;;4.70;;
65009;SDS011;51556;50.002;22.014;2023-07-13T09:10:05;6.30;;;5.10;;
65009;SDS011;51556;50.002;22.014;2023-07-13T09:13:26;7.00;;;5.20;;
65009;SDS011;51556;50.002;22.014;2023-07-13T09:15:41;6.00;;;4.80;;
65009;SDS011;51556;50.002;22.014;2023-07-13T09:18:12;6.40;;;4.60;;
65009;SDS011;51556;50.002;22.014;2023-07-13T09:20:46;9.00;;;4.80;;
65009;SDS011;51556;50.002;22.014;2023-07-13T09:23:18;10.80;;;4.90;;
65009;SDS011;51556;50.002;22.014;2023-07-13T09:25:57;12.00;;;5.40;;
65009;SDS011;51556;50.002;22.014;2023-07-13T09:28:33;8.20;;;5.30;;
65009;SDS011;51556;50.002;22.014;2023-07-13T09:31:23;9.00;;;4.50;;
65009;SDS011;51556;50.002;22.014;2023-07-13T09:37:38;7.90;;;4.60;;
65009;SDS011;51556;50.002;22.014;2023-07-13T09:40:38;6.90;;;4.70;;
65009;SDS011;51556;50.002;22.014;2023-07-13T09:44:15;6.60;;;4.70;;
65009;SDS011;51556;50.002;22.014;2023-07-13T09:46:38;7.00;;;5.00;;
65009;SDS011;51556;50.002;22.014;2023-07-13T09:49:14;5.70;;;4.70;;
65009;SDS011;51556;50.002;22.014;2023-07-13T09:54:54;5.80;;;4.30;;
65009;SDS011;51556;50.002;22.014;2023-07-13T09:57:42;7.40;;;4.50;;
65009;SDS011;51556;50.002;22.014;2023-07-13T10:03:42;13.20;;;5.40;;
65009;SDS011;51556;50.002;22.014;2023-07-13T10:06:20;6.40;;;5.10;;
65009;SDS011;51556;50.002;22.014;2023-07-13T10:08:51;4.90;;;4.50;;
65009;SDS011;51556;50.002;22.014;2023-07-13T10:11:22;5.00;;;4.40;;
65009;SDS011;51556;50.002;22.014;2023-07-13T10:14:18;4.60;;;4.20;;
65009;SDS011;51556;50.002;22.014;2023-07-13T10:19:39;6.00;;;3.60;;
65009;SDS011;51556;50.002;22.014;2023-07-13T10:22:20;4.40;;;3.30;;
65009;SDS011;51556;50.002;22.014;2023-07-13T10:25:18;4.40;;;3.00;;
65009;SDS011;51556;50.002;22.014;2023-07-13T10:28:28;5.20;;;3.30;;
65009;SDS011;51556;50.002;22.014;2023-07-13T10:31:10;4.50;;;3.30;;
65009;SDS011;51556;50.002;22.014;2023-07-13T10:33:39;5.50;;;3.70;;
65009;SDS011;51556;50.002;22.014;2023-07-13T10:39:13;3.60;;;3.10;;
65009;SDS011;51556;50.002;22.014;2023-07-13T10:42:00;4.90;;;3.40;;
65009;SDS011;51556;50.002;22.014;2023-07-13T10:47:26;4.10;;;3.40;;
65009;SDS011;51556;50.002;22.014;2023-07-13T10:50:05;5.80;;;3.60;;
65009;SDS011;51556;50.002;22.014;2023-07-13T10:53:01;5.70;;;4.10;;
65009;SDS011;51556;50.002;22.014;2023-07-13T11:05:01;5.40;;;3.80;;
65009;SDS011;51556;50.002;22.014;2023-07-13T11:08:12;5.10;;;4.10;;
65009;SDS011;51556;50.002;22.014;2023-07-13T11:11:49;6.00;;;3.90;;
65009;SDS011;51556;50.002;22.014;2023-07-13T11:16:56;6.50;;;4.40;;
65009;SDS011;51556;50.002;22.014;2023-07-13T11:19:40;5.10;;;3.60;;
65009;SDS011;51556;50.002;22.014;2023-07-13T11:22:24;5.20;;;3.70;;
65009;SDS011;51556;50.002;22.014;2023-07-13T11:27:53;6.90;;;4.30;;
65009;SDS011;51556;50.002;22.014;2023-07-13T11:41:58;8.70;;;5.70;;
65009;SDS011;51556;50.002;22.014;2023-07-13T11:44:30;9.80;;;6.20;;
65009;SDS011;51556;50.002;22.014;2023-07-13T11:49:56;10.50;;;6.30;;
65009;SDS011;51556;50.002;22.014;2023-07-13T11:52:23;10.70;;;6.40;;
65009;SDS011;51556;50.002;22.014;2023-07-13T11:55:13;13.80;;;6.90;;
65009;SDS011;51556;50.002;22.014;2023-07-13T12:00:32;11.90;;;7.80;;
65009;SDS011;51556;50.002;22.014;2023-07-13T12:03:22;9.60;;;7.60;;
65009;SDS011;51556;50.002;22.014;2023-07-13T12:05:57;8.30;;;7.00;;
65009;SDS011;51556;50.002;22.014;2023-07-13T12:08:43;9.00;;;5.70;;
65009;SDS011;51556;50.002;22.014;2023-07-13T12:11:15;11.60;;;6.40;;
65009;SDS011;51556;50.002;22.014;2023-07-13T12:13:43;9.20;;;6.30;;
65009;SDS011;51556;50.002;22.014;2023-07-13T12:16:17;12.00;;;6.80;;
65009;SDS011;51556;50.002;22.014;2023-07-13T12:21:44;7.80;;;5.40;;
65009;SDS011;51556;50.002;22.014;2023-07-13T12:26:43;8.20;;;4.00;;
65009;SDS011;51556;50.002;22.014;2023-07-13T12:29:16;5.30;;;3.80;;
65009;SDS011;51556;50.002;22.014;2023-07-13T12:31:49;3.70;;;3.30;;
65009;SDS011;51556;50.002;22.014;2023-07-13T12:34:18;5.90;;;3.80;;
65009;SDS011;51556;50.002;22.014;2023-07-13T12:36:55;6.00;;;3.60;;
65009;SDS011;51556;50.002;22.014;2023-07-13T12:39:43;5.10;;;2.80;;
65009;SDS011;51556;50.002;22.014;2023-07-13T12:45:05;8.30;;;4.40;;
65009;SDS011;51556;50.002;22.014;2023-07-13T12:47:52;6.60;;;4.60;;
65009;SDS011;51556;50.002;22.014;2023-07-13T12:50:47;7.10;;;4.60;;
65009;SDS011;51556;50.002;22.014;2023-07-13T12:55:49;6.90;;;5.00;;
65009;SDS011;51556;50.002;22.014;2023-07-13T12:58:36;7.80;;;4.70;;
65009;SDS011;51556;50.002;22.014;2023-07-13T13:01:04;7.00;;;5.10;;
65009;SDS011;51556;50.002;22.014;2023-07-13T13:03:32;7.90;;;5.00;;
65009;SDS011;51556;50.002;22.014;2023-07-13T13:06:05;7.30;;;5.10;;
65009;SDS011;51556;50.002;22.014;2023-07-13T13:10:58;7.60;;;4.70;;
65009;SDS011;51556;50.002;22.014;2023-07-13T13:13:24;8.40;;;5.60;;
65009;SDS011;51556;50.002;22.014;2023-07-13T13:15:49;9.20;;;6.10;;
65009;SDS011;51556;50.002;22.014;2023-07-13T13:18:16;7.50;;;5.90;;
65009;SDS011;51556;50.002;22.014;2023-07-13T13:20:47;6.80;;;5.80;;
65009;SDS011;51556;50.002;22.014;2023-07-13T13:23:15;9.20;;;6.60;;
65009;SDS011;51556;50.002;22.014;2023-07-13T13:25:48;8.20;;;6.90;;
65009;SDS011;51556;50.002;22.014;2023-07-13T13:28:16;9.80;;;6.00;;
65009;SDS011;51556;50.002;22.014;2023-07-13T13:33:42;8.00;;;5.50;;
65009;SDS011;51556;50.002;22.014;2023-07-13T13:36:14;8.60;;;5.40;;
65009;SDS011;51556;50.002;22.014;2023-07-13T13:38:50;6.70;;;4.60;;
65009;SDS011;51556;50.002;22.014;2023-07-13T13:41:18;7.50;;;5.00;;
65009;SDS011;51556;50.002;22.014;2023-07-13T13:44:27;6.10;;;4.60;;
65009;SDS011;51556;50.002;22.014;2023-07-13T13:47:19;6.00;;;4.00;;
65009;SDS011;51556;50.002;22.014;2023-07-13T13:50:29;6.00;;;3.60;;
65009;SDS011;51556;50.002;22.014;2023-07-13T13:52:57;4.90;;;2.80;;
65009;SDS011;51556;50.002;22.014;2023-07-13T13:55:30;3.30;;;2.80;;
65009;SDS011;51556;50.002;22.014;2023-07-13T13:58:09;3.00;;;2.20;;
65009;SDS011;51556;50.002;22.014;2023-07-13T14:00:39;2.80;;;1.80;;
65009;SDS011;51556;50.002;22.014;2023-07-13T14:03:04;2.80;;;1.80;;
65009;SDS011;51556;50.002;22.014;2023-07-13T14:05:32;2.50;;;1.90;;
65009;SDS011;51556;50.002;22.014;2023-07-13T14:07:57;3.20;;;1.90;;
65009;SDS011;51556;50.002;22.014;2023-07-13T14:10:24;4.20;;;2.10;;
65009;SDS011;51556;50.002;22.014;2023-07-13T14:12:52;5.10;;;1.70;;
65009;SDS011;51556;50.002;22.014;2023-07-13T14:15:26;2.40;;;1.50;;
65009;SDS011;51556;50.002;22.014;2023-07-13T14:18:03;2.30;;;1.30;;
65009;SDS011;51556;50.002;22.014;2023-07-13T14:20:28;3.70;;;1.30;;
65009;SDS011;51556;50.002;22.014;2023-07-13T14:22:55;1.60;;;1.50;;
65009;SDS011;51556;50.002;22.014;2023-07-13T14:25:20;2.30;;;1.40;;
65009;SDS011;51556;50.002;22.014;2023-07-13T14:27:48;2.60;;;1.50;;
65009;SDS011;51556;50.002;22.014;2023-07-13T14:30:20;1.70;;;1.10;;
65009;SDS011;51556;50.002;22.014;2023-07-13T14:32:48;2.00;;;1.20;;
65009;SDS011;51556;50.002;22.014;2023-07-13T14:35:15;2.90;;;1.10;;
65009;SDS011;51556;50.002;22.014;2023-07-13T14:37:42;1.80;;;1.20;;
65009;SDS011;51556;50.002;22.014;2023-07-13T14:40:16;3.20;;;1.40;;
65009;SDS011;51556;50.002;22.014;2023-07-13T14:42:46;3.70;;;1.20;;
65009;SDS011;51556;50.002;22.014;2023-07-13T14:45:17;3.30;;;1.40;;
65009;SDS011;51556;50.002;22.014;2023-07-13T14:47:44;3.90;;;0.80;;
65009;SDS011;51556;50.002;22.014;2023-07-13T14:50:16;2.00;;;1.00;;
65009;SDS011;51556;50.002;22.014;2023-07-13T14:52:56;4.00;;;1.30;;
65009;SDS011;51556;50.002;22.014;2023-07-13T14:55:21;3.40;;;1.10;;
65009;SDS011;51556;50.002;22.014;2023-07-13T14:57:48;1.50;;;1.20;;
65009;SDS011;51556;50.002;22.014;2023-07-13T15:00:16;2.70;;;1.00;;
65009;SDS011;51556;50.002;22.014;2023-07-13T15:02:44;3.20;;;1.10;;
65009;SDS011;51556;50.002;22.014;2023-07-13T15:07:38;3.10;;;1.30;;
65009;SDS011;51556;50.002;22.014;2023-07-13T15:10:16;4.70;;;1.20;;
65009;SDS011;51556;50.002;22.014;2023-07-13T15:12:46;2.00;;;1.30;;
65009;SDS011;51556;50.002;22.014;2023-07-13T15:15:12;3.90;;;1.30;;
65009;SDS011;51556;50.002;22.014;2023-07-13T15:17:42;1.60;;;1.40;;
65009;SDS011;51556;50.002;22.014;2023-07-13T15:20:17;3.40;;;1.80;;
65009;SDS011;51556;50.002;22.014;2023-07-13T15:22:48;2.10;;;1.60;;
65009;SDS011;51556;50.002;22.014;2023-07-13T15:25:18;2.90;;;1.60;;
65009;SDS011;51556;50.002;22.014;2023-07-13T15:27:46;2.60;;;1.30;;
65009;SDS011;51556;50.002;22.014;2023-07-13T15:30:11;4.90;;;1.30;;
65009;SDS011;51556;50.002;22.014;2023-07-13T15:32:39;1.90;;;1.20;;
65009;SDS011;51556;50.002;22.014;2023-07-13T15:35:12;2.00;;;1.30;;
65009;SDS011;51556;50.002;22.014;2023-07-13T15:37:48;1.50;;;1.30;;
65009;SDS011;51556;50.002;22.014;2023-07-13T15:40:15;2.40;;;1.30;;
65009;SDS011;51556;50.002;22.014;2023-07-13T15:42:41;1.60;;;1.40;;
65009;SDS011;51556;50.002;22.014;2023-07-13T15:45:16;3.20;;;1.30;;
65009;SDS011;51556;50.002;22.014;2023-07-13T15:47:44;2.40;;;1.90;;
65009;SDS011;51556;50.002;22.014;2023-07-13T15:50:21;3.50;;;2.00;;
65009;SDS011;51556;50.002;22.014;2023-07-13T15:52:52;1.90;;;1.50;;
65009;SDS011;51556;50.002;22.014;2023-07-13T15:55:20;1.80;;;1.10;;
65009;SDS011;51556;50.002;22.014;2023-07-13T15:57:48;1.90;;;1.20;;
65009;SDS011;51556;50.002;22.014;2023-07-13T16:00:20;1.60;;;1.30;;
65009;SDS011;51556;50.002;22.014;2023-07-13T16:02:48;2.10;;;1.20;;
65009;SDS011;51556;50.002;22.014;2023-07-13T16:05:15;2.20;;;1.10;;